createdAt,value
2022-10-31T00:01:24.949Z,192.82
2022-10-31T00:03:51.653Z,199.98
2022-10-31T00:06:21.201Z,218.23
2022-10-31T00:08:48.841Z,453.63
2022-10-31T00:11:15.453Z,228.95
2022-10-31T00:13:42.079Z,226.18
2022-10-31T00:16:18.200Z,226.20
2022-10-31T00:18:48.588Z,210.73
2022-10-31T00:21:15.653Z,194.32
2022-10-31T00:23:42.294Z,192.43
2022-10-31T00:26:09.077Z,190.90
2022-10-31T00:28:35.757Z,180.13
2022-10-31T00:31:04.598Z,165.23
2022-10-31T00:33:31.253Z,177.18
2022-10-31T00:35:57.950Z,149.90
2022-10-31T00:38:24.677Z,238.20
2022-10-31T00:40:51.271Z,308.17
2022-10-31T00:43:17.882Z,347.77
2022-10-31T00:45:44.681Z,205.32
2022-10-31T00:48:11.823Z,209.00
2022-10-31T00:50:39.289Z,192.90
2022-10-31T00:53:06.435Z,191.70
2022-10-31T00:55:33.066Z,316.17
2022-10-31T00:58:00.098Z,214.23
2022-10-31T01:00:27.325Z,188.57
2022-10-31T01:02:53.931Z,210.23
2022-10-31T01:05:21.265Z,278.17
2022-10-31T01:07:48.202Z,202.98
2022-10-31T01:10:14.943Z,283.40
2022-10-31T01:12:47.696Z,183.45
2022-10-31T01:15:17.723Z,182.35
2022-10-31T01:17:44.378Z,163.38
2022-10-31T01:20:13.204Z,196.68
2022-10-31T01:22:39.864Z,267.30
2022-10-31T01:25:07.695Z,179.13
2022-10-31T01:27:34.266Z,184.07
2022-10-31T01:30:00.985Z,174.73
2022-10-31T01:32:29.829Z,255.07
2022-10-31T01:34:56.441Z,194.32
2022-10-31T01:37:23.037Z,178.43
2022-10-31T01:39:50.153Z,179.70
2022-10-31T01:42:20.346Z,181.05
2022-10-31T01:44:57.702Z,294.55
2022-10-31T01:47:39.434Z,233.82
2022-10-31T01:50:13.430Z,168.05
2022-10-31T01:52:50.525Z,231.35
2022-10-31T01:55:29.141Z,423.73
2022-10-31T01:58:04.993Z,195.77
2022-10-31T02:00:31.816Z,247.05
2022-10-31T02:03:00.508Z,375.63
2022-10-31T02:05:31.232Z,238.40
2022-10-31T02:08:16.469Z,227.10
2022-10-31T02:10:44.901Z,265.23
2022-10-31T02:13:13.894Z,245.60
2022-10-31T02:15:43.923Z,594.10
2022-10-31T02:18:10.784Z,682.80
2022-10-31T02:20:52.210Z,245.93
2022-10-31T02:23:37.054Z,381.38
2022-10-31T02:26:18.834Z,304.42
2022-10-31T02:29:15.182Z,446.35
2022-10-31T02:31:57.978Z,631.33
2022-10-31T02:34:45.631Z,405.55
2022-10-31T02:37:14.657Z,253.75
2022-10-31T02:39:54.685Z,252.27
2022-10-31T02:42:50.237Z,432.70
2022-10-31T02:45:19.925Z,401.65
2022-10-31T02:47:50.061Z,379.38
2022-10-31T02:50:20.209Z,395.90
2022-10-31T02:52:52.330Z,335.20
2022-10-31T02:55:27.942Z,457.38
2022-10-31T02:58:00.288Z,379.17
2022-10-31T03:00:27.165Z,296.80
2022-10-31T03:02:56.619Z,310.30
2022-10-31T03:05:41.497Z,494.02
2022-10-31T03:08:42.718Z,512.00
2022-10-31T03:11:10.797Z,492.63
2022-10-31T03:13:47.966Z,400.83
2022-10-31T03:16:59.101Z,369.15
2022-10-31T03:19:34.086Z,391.15
2022-10-31T03:22:26.801Z,390.17
2022-10-31T03:24:55.492Z,348.67
2022-10-31T03:27:27.376Z,348.40
2022-10-31T03:29:57.357Z,272.73
2022-10-31T03:32:32.705Z,285.67
2022-10-31T03:35:04.025Z,275.55
2022-10-31T03:37:33.769Z,277.83
2022-10-31T03:40:03.003Z,323.52
2022-10-31T03:42:34.437Z,215.10
2022-10-31T03:45:03.937Z,243.88
2022-10-31T03:47:30.782Z,435.33
2022-10-31T03:49:58.113Z,327.23
2022-10-31T03:52:36.867Z,379.63
2022-10-31T03:55:29.417Z,373.13
2022-10-31T03:58:05.081Z,502.55
2022-10-31T04:00:34.974Z,444.17
2022-10-31T04:03:15.488Z,283.48
2022-10-31T04:05:46.913Z,210.98
2022-10-31T04:08:21.281Z,380.83
2022-10-31T04:10:50.818Z,311.58
2022-10-31T04:13:24.011Z,393.95
2022-10-31T04:15:55.093Z,226.32
2022-10-31T04:18:24.065Z,334.08
2022-10-31T04:21:00.132Z,251.07
2022-10-31T04:23:27.472Z,478.80
2022-10-31T04:25:54.110Z,408.45
2022-10-31T04:28:20.777Z,487.30
2022-10-31T04:30:47.375Z,462.95
2022-10-31T04:33:14.025Z,259.60
2022-10-31T04:35:41.091Z,371.33
2022-10-31T04:38:07.837Z,233.63
2022-10-31T04:40:34.418Z,226.60
2022-10-31T04:43:01.177Z,242.75
2022-10-31T04:45:27.989Z,501.52
2022-10-31T04:47:54.560Z,343.40
2022-10-31T04:50:22.277Z,368.92
2022-10-31T04:52:48.838Z,246.50
2022-10-31T04:55:15.922Z,200.80
2022-10-31T04:57:46.504Z,274.35
2022-10-31T05:00:15.342Z,173.57
2022-10-31T05:02:48.299Z,316.30
2022-10-31T05:05:16.520Z,337.05
2022-10-31T05:07:45.161Z,222.63
2022-10-31T05:10:14.595Z,226.00
2022-10-31T05:12:56.136Z,153.35
2022-10-31T05:15:25.357Z,125.70
2022-10-31T05:17:52.901Z,104.57
2022-10-31T05:20:21.877Z,219.57
2022-10-31T05:22:51.073Z,260.63
2022-10-31T05:25:19.272Z,280.60
2022-10-31T05:27:48.494Z,136.32
2022-10-31T05:30:18.419Z,178.00
2022-10-31T05:35:16.102Z,347.25
2022-10-31T05:37:43.302Z,154.68
2022-10-31T05:40:15.616Z,264.75
2022-10-31T05:42:43.970Z,257.67
2022-10-31T05:45:14.836Z,184.38
2022-10-31T05:47:41.472Z,392.83
2022-10-31T05:50:09.593Z,267.58
2022-10-31T05:52:36.503Z,412.17
2022-10-31T05:55:03.673Z,516.80
2022-10-31T05:57:30.658Z,552.42
2022-10-31T05:59:57.349Z,505.75
2022-10-31T06:02:24.053Z,544.38
2022-10-31T06:04:50.801Z,342.55
2022-10-31T06:07:17.525Z,240.45
2022-10-31T06:09:44.194Z,252.15
2022-10-31T06:12:10.830Z,222.95
2022-10-31T06:14:37.420Z,212.52
2022-10-31T06:17:04.028Z,456.02
2022-10-31T06:19:30.702Z,373.70
2022-10-31T06:21:57.373Z,398.65
2022-10-31T06:24:23.950Z,171.27
2022-10-31T06:26:50.525Z,177.40
2022-10-31T06:29:17.218Z,255.00
2022-10-31T06:31:43.813Z,342.45
2022-10-31T06:34:10.469Z,463.25
2022-10-31T06:36:37.083Z,274.45
2022-10-31T06:39:03.820Z,217.70
2022-10-31T06:41:30.450Z,183.88
2022-10-31T06:43:57.097Z,249.07
2022-10-31T06:46:23.769Z,295.17
2022-10-31T06:48:50.667Z,195.00
2022-10-31T06:51:17.462Z,247.80
2022-10-31T06:53:44.124Z,324.85
2022-10-31T06:56:10.760Z,242.00
2022-10-31T06:58:37.377Z,217.10
2022-10-31T07:01:04.152Z,233.18
2022-10-31T07:03:30.977Z,289.35
2022-10-31T07:05:58.021Z,201.45
2022-10-31T07:08:24.886Z,323.67
2022-10-31T07:10:53.998Z,168.52
2022-10-31T07:13:25.919Z,138.63
2022-10-31T07:16:03.656Z,126.80
2022-10-31T07:18:30.502Z,134.50
2022-10-31T07:20:57.255Z,89.82
2022-10-31T07:23:23.883Z,158.23
2022-10-31T07:25:56.302Z,95.10
2022-10-31T07:28:23.487Z,98.55
2022-10-31T07:30:54.735Z,172.18
2022-10-31T07:33:21.969Z,114.90
2022-10-31T07:35:48.875Z,179.35
2022-10-31T07:38:16.501Z,136.63
2022-10-31T07:40:43.894Z,159.85
2022-10-31T07:43:14.449Z,147.60
2022-10-31T07:45:42.173Z,127.38
2022-10-31T07:48:08.826Z,108.18
2022-10-31T07:50:35.612Z,196.20
2022-10-31T07:53:07.413Z,142.27
2022-10-31T07:55:35.069Z,147.13
2022-10-31T07:58:10.345Z,188.98
2022-10-31T08:00:38.472Z,142.77
2022-10-31T08:03:08.554Z,110.13
2022-10-31T08:05:36.178Z,98.97
2022-10-31T08:08:04.496Z,85.60
2022-10-31T08:10:31.892Z,77.07
2022-10-31T08:13:04.044Z,122.10
2022-10-31T08:15:31.121Z,76.40
2022-10-31T08:17:58.904Z,71.22
2022-10-31T08:20:25.810Z,51.65
2022-10-31T08:23:03.890Z,61.17
2022-10-31T08:25:35.633Z,49.35
2022-10-31T08:28:06.050Z,49.80
2022-10-31T08:30:35.468Z,43.60
2022-10-31T08:33:09.481Z,47.75
2022-10-31T08:35:36.316Z,63.78
2022-10-31T08:38:03.932Z,62.85
2022-10-31T08:40:32.233Z,56.25
2022-10-31T08:43:12.547Z,65.45
2022-10-31T08:45:39.199Z,68.13
2022-10-31T08:48:08.222Z,68.53
2022-10-31T08:50:36.551Z,60.05
2022-10-31T08:53:15.489Z,64.70
2022-10-31T08:55:43.451Z,75.03
2022-10-31T08:58:15.524Z,79.82
2022-10-31T09:00:43.262Z,77.90
2022-10-31T09:03:22.511Z,79.20
2022-10-31T09:05:49.435Z,90.22
2022-10-31T09:08:17.384Z,89.22
2022-10-31T09:10:47.171Z,78.55
2022-10-31T09:13:17.076Z,77.95
2022-10-31T09:18:12.477Z,91.72
2022-10-31T09:20:40.709Z,84.07
2022-10-31T09:23:16.227Z,75.05
2022-10-31T09:25:49.129Z,73.90
2022-10-31T09:28:19.022Z,68.70
2022-10-31T09:30:48.502Z,79.88
2022-10-31T09:33:15.484Z,70.38
2022-10-31T09:35:42.831Z,60.20
2022-10-31T09:38:21.661Z,73.35
2022-10-31T09:41:07.585Z,65.53
2022-10-31T09:43:52.617Z,64.07
2022-10-31T09:46:46.030Z,54.72
2022-10-31T09:49:34.058Z,55.97
2022-10-31T09:52:03.620Z,58.53
2022-10-31T09:54:43.781Z,58.50
2022-10-31T09:57:15.226Z,59.17
2022-10-31T09:59:44.470Z,63.30
2022-10-31T10:02:40.525Z,68.43
2022-10-31T10:05:12.797Z,65.53
2022-10-31T10:07:52.855Z,65.55
2022-10-31T10:10:33.531Z,82.22
2022-10-31T10:13:24.586Z,76.60
2022-10-31T10:16:34.342Z,64.88
2022-10-31T10:19:22.924Z,58.58
2022-10-31T10:22:23.564Z,64.50
2022-10-31T10:25:01.728Z,53.95
2022-10-31T10:28:02.465Z,55.92
2022-10-31T10:30:41.658Z,56.05
2022-10-31T10:33:43.811Z,62.33
2022-10-31T10:36:19.666Z,60.47
2022-10-31T10:38:55.333Z,61.33
2022-10-31T10:41:29.401Z,71.80
2022-10-31T10:44:02.522Z,74.65
2022-10-31T10:47:07.853Z,76.47
2022-10-31T10:49:50.815Z,68.63
2022-10-31T10:52:42.134Z,73.10
2022-10-31T10:55:21.097Z,67.15
2022-10-31T10:57:56.425Z,58.92
2022-10-31T11:00:24.796Z,55.95
2022-10-31T11:02:51.990Z,49.13
2022-10-31T11:05:49.365Z,48.42
2022-10-31T11:08:30.907Z,55.17
2022-10-31T11:11:26.414Z,51.40
2022-10-31T11:14:00.652Z,49.03
2022-10-31T11:16:27.188Z,53.90
2022-10-31T11:18:55.073Z,53.10
2022-10-31T11:21:28.205Z,49.95
2022-10-31T11:24:09.811Z,42.53
2022-10-31T11:26:40.544Z,46.45
2022-10-31T11:29:15.831Z,46.90
2022-10-31T11:31:45.666Z,47.90
2022-10-31T11:37:24.034Z,54.17
2022-10-31T11:40:02.952Z,50.63
2022-10-31T11:42:37.250Z,53.30
2022-10-31T11:45:15.265Z,48.42
2022-10-31T11:47:49.930Z,50.55
2022-10-31T11:50:24.176Z,55.75
2022-10-31T11:52:52.237Z,52.75
2022-10-31T11:55:36.136Z,50.95
2022-10-31T11:58:04.269Z,54.20
2022-10-31T12:00:38.364Z,57.47
2022-10-31T12:03:13.816Z,57.55
2022-10-31T12:05:42.532Z,57.33
2022-10-31T12:08:14.447Z,57.67
2022-10-31T12:10:53.253Z,50.85
2022-10-31T12:13:32.552Z,55.88
2022-10-31T12:16:09.161Z,51.92
2022-10-31T12:18:48.499Z,55.58
2022-10-31T12:21:23.251Z,59.78
2022-10-31T12:23:49.796Z,53.75
2022-10-31T12:26:24.070Z,51.72
2022-10-31T12:29:30.073Z,48.40
2022-10-31T12:32:36.854Z,55.78
2022-10-31T12:35:18.754Z,50.67
2022-10-31T12:37:53.074Z,51.60
2022-10-31T12:40:44.865Z,51.20
2022-10-31T12:43:14.342Z,48.20
2022-10-31T12:45:52.711Z,55.30
2022-10-31T12:48:41.963Z,49.53
2022-10-31T12:51:42.878Z,58.10
2022-10-31T12:54:28.105Z,52.97
2022-10-31T12:57:28.489Z,52.33
2022-10-31T13:00:04.370Z,52.85
2022-10-31T13:02:36.798Z,49.85
2022-10-31T13:05:12.179Z,57.22
2022-10-31T13:07:54.621Z,53.30
2022-10-31T13:10:27.688Z,51.03
2022-10-31T13:12:58.463Z,49.20
2022-10-31T13:15:32.353Z,41.40
2022-10-31T13:18:03.108Z,44.47
2022-10-31T13:20:34.154Z,44.92
2022-10-31T13:23:36.623Z,53.00
2022-10-31T13:26:10.471Z,54.25
2022-10-31T13:31:15.396Z,49.53
2022-10-31T13:33:52.834Z,47.22
2022-10-31T13:36:25.403Z,44.00
2022-10-31T13:38:55.000Z,42.80
2022-10-31T13:41:27.653Z,48.13
2022-10-31T13:44:02.575Z,52.22
2022-10-31T13:46:32.220Z,53.38
2022-10-31T13:48:58.927Z,60.20
2022-10-31T13:51:31.502Z,55.55
2022-10-31T13:54:08.399Z,56.53
2022-10-31T13:56:36.523Z,56.35
2022-10-31T13:59:12.055Z,53.95
2022-10-31T14:01:48.650Z,54.30
2022-10-31T14:04:24.731Z,53.28
2022-10-31T14:07:07.153Z,52.67
2022-10-31T14:09:53.270Z,47.50
2022-10-31T14:12:32.032Z,46.13
2022-10-31T14:15:23.576Z,48.00
2022-10-31T14:17:55.777Z,47.63
2022-10-31T14:20:34.959Z,47.38
2022-10-31T14:23:31.046Z,51.65
2022-10-31T14:26:27.402Z,55.08
2022-10-31T14:28:57.214Z,53.80
2022-10-31T14:31:36.764Z,50.70
2022-10-31T14:34:21.332Z,47.90
2022-10-31T14:37:06.111Z,53.08
2022-10-31T14:39:42.704Z,56.58
2022-10-31T14:42:54.550Z,61.72
2022-10-31T14:45:40.053Z,61.33
2022-10-31T14:48:15.786Z,62.22
2022-10-31T14:50:54.099Z,60.88
2022-10-31T14:53:26.401Z,64.20
2022-10-31T14:55:55.586Z,61.13
2022-10-31T15:01:03.317Z,61.13
2022-10-31T15:04:10.483Z,62.45
2022-10-31T15:06:44.038Z,55.22
2022-10-31T15:09:25.484Z,65.55
2022-10-31T15:11:52.488Z,54.35
2022-10-31T15:14:45.517Z,54.38
2022-10-31T15:17:13.324Z,58.75
2022-10-31T15:19:40.189Z,61.83
2022-10-31T15:22:10.485Z,50.15
2022-10-31T15:24:39.907Z,53.47
2022-10-31T15:27:13.766Z,60.63
2022-10-31T15:29:52.422Z,61.25
2022-10-31T15:32:21.453Z,61.83
2022-10-31T15:34:48.070Z,78.25
2022-10-31T15:37:20.440Z,67.13
2022-10-31T15:39:48.472Z,69.13
2022-10-31T15:42:41.717Z,67.20
2022-10-31T15:45:14.500Z,68.55
2022-10-31T15:47:54.693Z,65.70
2022-10-31T15:50:38.712Z,67.60
2022-10-31T15:53:36.026Z,69.95
2022-10-31T15:56:07.199Z,72.35
2022-10-31T15:58:51.449Z,66.28
2022-10-31T16:01:34.400Z,64.20
2022-10-31T16:04:13.058Z,65.38
2022-10-31T16:06:39.949Z,67.72
2022-10-31T16:09:23.118Z,62.08
2022-10-31T16:11:49.957Z,64.82
2022-10-31T16:14:25.269Z,65.07
2022-10-31T16:16:56.587Z,67.68
2022-10-31T16:19:23.142Z,74.22
2022-10-31T16:21:53.472Z,69.80
2022-10-31T16:24:32.890Z,76.07
2022-10-31T16:27:10.246Z,64.97
2022-10-31T16:29:44.862Z,72.45
2022-10-31T16:32:54.919Z,113.10
2022-10-31T16:35:40.454Z,76.05
2022-10-31T16:38:10.432Z,68.25
2022-10-31T16:40:39.093Z,69.13
2022-10-31T16:43:06.150Z,66.05
2022-10-31T16:45:34.077Z,68.85
2022-10-31T16:48:13.110Z,74.43
2022-10-31T16:50:39.865Z,78.18
2022-10-31T16:53:14.940Z,62.95
2022-10-31T16:56:03.074Z,57.05
2022-10-31T16:58:33.639Z,64.35
2022-10-31T17:01:02.114Z,62.25
2022-10-31T17:03:28.875Z,60.35
2022-10-31T17:05:56.467Z,72.55
2022-10-31T17:08:24.793Z,137.18
2022-10-31T17:10:59.176Z,148.95
2022-10-31T17:13:28.717Z,82.90
2022-10-31T17:15:58.462Z,73.70
2022-10-31T17:18:27.646Z,77.82
2022-10-31T17:21:14.340Z,80.72
2022-10-31T17:23:40.972Z,65.75
2022-10-31T17:26:10.315Z,79.93
2022-10-31T17:28:37.259Z,75.95
2022-10-31T17:31:03.999Z,78.97
2022-10-31T17:33:30.611Z,69.95
2022-10-31T17:35:57.224Z,69.25
2022-10-31T17:38:23.884Z,73.60
2022-10-31T17:40:50.470Z,67.15
2022-10-31T17:43:17.089Z,65.72
2022-10-31T17:45:43.742Z,67.15
2022-10-31T17:48:12.571Z,62.08
2022-10-31T17:50:39.273Z,70.28
2022-10-31T17:53:06.053Z,68.53
2022-10-31T17:55:36.181Z,75.45
2022-10-31T17:58:04.530Z,65.63
2022-10-31T18:00:31.278Z,63.42
2022-10-31T18:02:57.974Z,72.10
2022-10-31T18:05:24.656Z,68.32
2022-10-31T18:07:51.342Z,74.53
2022-10-31T18:10:18.262Z,61.92
2022-10-31T18:12:47.762Z,71.30
2022-10-31T18:15:15.726Z,64.53
2022-10-31T18:17:46.458Z,67.38
2022-10-31T18:20:13.382Z,65.35
2022-10-31T18:22:39.997Z,64.15
2022-10-31T18:25:06.836Z,62.92
2022-10-31T18:27:33.406Z,63.45
2022-10-31T18:30:00.022Z,57.85
2022-10-31T18:32:26.599Z,66.78
2022-10-31T18:34:53.847Z,59.75
2022-10-31T18:37:20.476Z,62.42
2022-10-31T18:39:47.062Z,68.28
2022-10-31T18:42:13.707Z,66.47
2022-10-31T18:44:40.430Z,60.05
2022-10-31T18:47:07.050Z,67.35
2022-10-31T18:49:33.632Z,74.80
2022-10-31T18:52:00.739Z,77.30
2022-10-31T18:54:27.375Z,69.35
2022-10-31T18:56:54.585Z,73.43
2022-10-31T18:59:21.221Z,89.63
2022-10-31T19:01:47.908Z,81.93
2022-10-31T19:04:14.637Z,88.85
2022-10-31T19:06:41.369Z,98.25
2022-10-31T19:09:09.794Z,75.97
2022-10-31T19:11:39.855Z,71.82
2022-10-31T19:14:08.504Z,72.68
2022-10-31T19:16:37.120Z,76.30
2022-10-31T19:19:03.907Z,73.97
2022-10-31T19:21:34.705Z,70.22
2022-10-31T19:24:02.136Z,77.05
2022-10-31T19:26:28.769Z,70.68
2022-10-31T19:28:56.662Z,69.15
2022-10-31T19:31:24.086Z,58.05
2022-10-31T19:33:51.031Z,67.32
2022-10-31T19:36:19.046Z,58.53
2022-10-31T19:38:48.566Z,72.15
2022-10-31T19:41:20.706Z,80.80
2022-10-31T19:43:47.898Z,81.72
2022-10-31T19:46:27.765Z,81.35
2022-10-31T19:49:02.621Z,78.22
2022-10-31T19:51:29.192Z,70.03
2022-10-31T19:53:55.809Z,73.65
2022-10-31T19:56:25.383Z,78.30
2022-10-31T19:58:52.127Z,79.72
2022-10-31T20:01:22.056Z,71.88
2022-10-31T20:03:50.036Z,72.90
2022-10-31T20:06:28.219Z,67.43
2022-10-31T20:08:56.211Z,76.15
2022-10-31T20:11:27.727Z,65.20
2022-10-31T20:14:00.769Z,73.88
2022-10-31T20:16:28.363Z,78.65
2022-10-31T20:18:55.434Z,76.43
2022-10-31T20:21:25.001Z,77.03
2022-10-31T20:24:03.050Z,73.85
2022-10-31T20:26:31.718Z,75.93
2022-10-31T20:28:59.386Z,78.85
2022-10-31T20:31:28.699Z,73.70
2022-10-31T20:33:55.895Z,82.20
2022-10-31T20:36:23.444Z,71.53
2022-10-31T20:38:51.645Z,70.30
2022-10-31T20:41:19.134Z,70.28
2022-10-31T20:43:46.345Z,63.53
2022-10-31T20:46:21.749Z,63.50
2022-10-31T20:48:48.590Z,75.38
2022-10-31T20:51:21.960Z,65.50
2022-10-31T20:53:50.399Z,71.93
2022-10-31T20:56:20.165Z,71.93
2022-10-31T20:58:47.539Z,72.82
2022-10-31T21:01:20.136Z,75.10
2022-10-31T21:03:48.236Z,79.07
2022-10-31T21:06:15.970Z,79.15
2022-10-31T21:08:43.185Z,82.97
2022-10-31T21:11:12.635Z,73.25
2022-10-31T21:13:42.237Z,79.88
2022-10-31T21:16:14.643Z,90.47
2022-10-31T21:18:44.030Z,88.80
2022-10-31T21:21:13.505Z,80.20
2022-10-31T21:23:40.765Z,85.82
2022-10-31T21:26:19.324Z,85.43
2022-10-31T21:28:45.939Z,72.65
2022-10-31T21:31:14.698Z,74.47
2022-10-31T21:33:42.097Z,57.08
2022-10-31T21:36:09.804Z,64.60
2022-10-31T21:38:37.160Z,56.53
2022-10-31T21:41:06.186Z,56.08
2022-10-31T21:43:36.057Z,60.73
2022-10-31T21:46:10.838Z,51.20
2022-10-31T21:48:43.499Z,52.55
2022-10-31T21:51:21.558Z,59.25
2022-10-31T21:54:07.576Z,63.85
2022-10-31T21:56:35.482Z,58.75
2022-10-31T21:59:02.676Z,73.50
2022-10-31T22:01:29.945Z,63.75
2022-10-31T22:03:57.691Z,74.47
2022-10-31T22:06:30.015Z,76.15
2022-10-31T22:08:59.200Z,75.10
2022-10-31T22:11:26.928Z,70.32
2022-10-31T22:13:53.919Z,101.15
2022-10-31T22:16:22.330Z,152.48
2022-10-31T22:18:55.595Z,100.70
2022-10-31T22:21:24.189Z,65.13
2022-10-31T22:23:52.666Z,74.85
2022-10-31T22:26:19.942Z,133.93
2022-10-31T22:28:48.770Z,66.82
2022-10-31T22:31:17.587Z,110.15
2022-10-31T22:33:45.457Z,82.47
2022-10-31T22:36:15.328Z,76.20
2022-10-31T22:41:17.194Z,70.45
2022-10-31T22:43:44.206Z,60.25
2022-10-31T22:46:23.134Z,82.00
2022-10-31T22:48:52.206Z,59.65
2022-10-31T22:51:27.004Z,49.37
2022-10-31T22:53:56.817Z,49.17
2022-10-31T22:56:26.379Z,47.00
2022-10-31T22:58:53.962Z,47.55
2022-10-31T23:01:26.975Z,49.60
2022-10-31T23:03:53.746Z,43.65
2022-10-31T23:06:23.318Z,46.67
2022-10-31T23:08:51.571Z,49.47
2022-10-31T23:11:23.626Z,48.83
2022-10-31T23:14:13.240Z,63.88
2022-10-31T23:16:53.677Z,130.68
2022-10-31T23:19:22.617Z,60.55
2022-10-31T23:21:56.495Z,95.87
2022-10-31T23:24:26.533Z,51.35
2022-10-31T23:27:09.848Z,92.60
2022-10-31T23:29:48.535Z,59.45
2022-10-31T23:32:21.449Z,43.63
2022-10-31T23:34:50.509Z,101.35
2022-10-31T23:37:18.695Z,121.50
2022-10-31T23:39:47.704Z,41.47
2022-10-31T23:42:15.575Z,50.57
2022-10-31T23:44:42.934Z,47.78
2022-10-31T23:47:09.670Z,51.80
2022-10-31T23:49:37.385Z,40.72
2022-10-31T23:52:05.361Z,47.03
2022-10-31T23:54:32.713Z,67.97
2022-10-31T23:56:59.733Z,44.38
2022-10-31T23:59:26.888Z,44.85
